Skip Navigation Links Skip Navigation Links

Current Weather

Modesto City-Co-Harry Sham Fld, Modesto, Calif.

For information only: do not use for flight planning or navigation.
Latest weather
Observation time Wednesday, January 26, 2022 7:53 PM PST
Local time Wednesday, January 26, 2022 8:54 PM PST
Flight conditions Visual Meteorological Conditions
Winds
Wind direction West-Northwest (290°)
Wind speed 7 mph
Visibility 8 mi.
Sky condition
Ceiling unlimited
Sky clear
Temperature 51°F
Dewpoint 44°F
Altimeter 30.14 in.Hg
Derived measurements
Relative humidity 77%
Density altitude -537 ft.
Sea-level pressure 30.14 in.Hg
Remarks
Automated weather observing station with precipitation discriminator.
METAR KMOD 270353Z 29006KT 8SM CLR 11/07 A3014 RMK AO2 SLP206 T01060067

Settings

Location code

InnerDrive.Weather 4.0.6770.0 Release CLR 4.0.30319.42000
Copyright ©2018 Inner Drive Technology. All rights reserved. Portions Copyright ©1986-2018 David Braverman.

Find weather

Site navigation


Skip Navigation Links

Place info

Page info

PayPal - The safer, easier way to pay online!

Return home.

Copyright ©2022 Inner Drive Technology. Purveyors of fine, hand-crafted computer software. Page printed 2022-01-27T04:54:10 UTC.